createdAt,value
2018-03-28T00:00:19.285Z,15.00
2018-03-28T00:01:21.747Z,13.23
2018-03-28T00:02:24.634Z,15.80
2018-03-28T00:03:27.518Z,15.52
2018-03-28T00:04:30.006Z,20.85
2018-03-28T00:05:33.267Z,32.58
2018-03-28T00:06:36.510Z,40.63
2018-03-28T00:07:39.755Z,26.77
2018-03-28T00:08:43.009Z,23.83
2018-03-28T00:09:45.512Z,25.85
2018-03-28T00:10:48.809Z,32.13
2018-03-28T00:11:51.322Z,34.30
2018-03-28T00:12:53.799Z,21.70
2018-03-28T00:13:56.365Z,25.05
2018-03-28T00:14:58.990Z,23.02
2018-03-28T00:16:02.400Z,26.42
2018-03-28T00:17:04.912Z,28.85
2018-03-28T00:18:07.439Z,30.48
2018-03-28T00:19:09.909Z,20.05
2018-03-28T00:20:12.377Z,25.55
2018-03-28T00:21:15.003Z,22.13
2018-03-28T00:22:18.204Z,25.58
2018-03-28T00:23:20.943Z,26.95
2018-03-28T00:24:23.462Z,33.63
2018-03-28T00:25:25.939Z,26.02
2018-03-28T00:26:28.511Z,43.15
2018-03-28T00:27:31.016Z,26.35
2018-03-28T00:28:34.326Z,24.75
2018-03-28T00:29:36.852Z,24.00
2018-03-28T00:30:40.200Z,33.42
2018-03-28T00:31:43.592Z,27.67
2018-03-28T00:32:46.229Z,21.35
2018-03-28T00:33:48.750Z,25.02
2018-03-28T00:34:51.258Z,29.58
2018-03-28T00:35:54.499Z,25.65
2018-03-28T00:36:57.723Z,21.42
2018-03-28T00:38:01.548Z,25.23
2018-03-28T00:39:04.158Z,20.45
2018-03-28T00:40:07.386Z,29.85
2018-03-28T00:41:10.792Z,17.00
2018-03-28T00:42:13.259Z,18.80
2018-03-28T00:43:16.012Z,26.95
2018-03-28T00:44:18.629Z,19.52
2018-03-28T00:45:21.103Z,19.98
2018-03-28T00:46:23.597Z,20.75
2018-03-28T00:47:26.183Z,21.15
2018-03-28T00:48:29.425Z,21.45
2018-03-28T00:49:32.671Z,28.20
2018-03-28T00:50:35.199Z,19.12
2018-03-28T00:51:37.701Z,18.27
2018-03-28T00:52:41.071Z,17.17
2018-03-28T00:53:43.564Z,23.12
2018-03-28T00:54:46.030Z,19.30
2018-03-28T00:55:48.517Z,17.80
2018-03-28T00:56:51.051Z,18.87
2018-03-28T00:57:53.588Z,19.37
2018-03-28T00:58:56.765Z,23.27
2018-03-28T00:59:59.284Z,19.73
2018-03-28T01:01:01.742Z,16.55
2018-03-28T01:02:04.228Z,23.48
2018-03-28T01:03:06.712Z,25.65
2018-03-28T01:04:09.958Z,22.95
2018-03-28T01:05:12.599Z,18.40
2018-03-28T01:06:15.822Z,23.27
2018-03-28T01:07:18.405Z,25.17
2018-03-28T01:08:20.907Z,23.15
2018-03-28T01:09:23.415Z,17.98
2018-03-28T01:10:26.673Z,26.55
2018-03-28T01:11:29.152Z,19.05
2018-03-28T01:12:32.469Z,21.95
2018-03-28T01:13:34.949Z,26.67
2018-03-28T01:14:38.274Z,20.60
2018-03-28T01:15:41.528Z,20.30
2018-03-28T01:16:44.078Z,18.45
2018-03-28T01:17:46.587Z,19.08
2018-03-28T01:18:49.852Z,20.67
2018-03-28T01:19:52.394Z,19.02
2018-03-28T01:20:54.905Z,20.12
2018-03-28T01:21:57.417Z,18.40
2018-03-28T01:23:00.667Z,20.33
2018-03-28T01:24:03.138Z,23.85
2018-03-28T01:25:05.630Z,21.08
2018-03-28T01:26:08.096Z,20.65
2018-03-28T01:27:10.616Z,33.03
2018-03-28T01:28:13.132Z,19.75
2018-03-28T01:29:15.629Z,19.23
2018-03-28T01:30:18.196Z,23.30
2018-03-28T01:31:20.681Z,20.73
2018-03-28T01:32:23.164Z,19.23
2018-03-28T01:33:25.682Z,24.30
2018-03-28T01:34:28.161Z,22.55
2018-03-28T01:35:30.643Z,21.58
2018-03-28T01:36:33.115Z,20.40
2018-03-28T01:37:35.603Z,20.95
2018-03-28T01:38:39.053Z,23.25
2018-03-28T01:39:42.329Z,21.45
2018-03-28T01:40:44.890Z,19.80
2018-03-28T01:41:47.463Z,23.48
2018-03-28T01:42:49.932Z,28.50
2018-03-28T01:43:52.422Z,29.60
2018-03-28T01:44:54.938Z,22.80
2018-03-28T01:45:58.163Z,27.00
2018-03-28T01:47:01.407Z,131.43
2018-03-28T01:48:04.656Z,26.87
2018-03-28T01:49:07.886Z,20.77
2018-03-28T01:50:13.913Z,18.62
2018-03-28T01:51:16.384Z,20.65
2018-03-28T01:52:18.851Z,26.87
2018-03-28T01:53:22.073Z,25.98
2018-03-28T01:54:24.555Z,24.83
2018-03-28T01:55:27.046Z,27.00
2018-03-28T01:56:30.302Z,26.25
2018-03-28T01:57:32.775Z,24.37
2018-03-28T01:58:35.247Z,30.88
2018-03-28T01:59:37.818Z,28.23
2018-03-28T02:00:40.370Z,30.80
2018-03-28T02:01:42.889Z,35.10
2018-03-28T02:02:45.359Z,25.27
2018-03-28T02:03:47.851Z,27.70
2018-03-28T02:04:51.095Z,31.15
2018-03-28T02:05:54.348Z,28.62
2018-03-28T02:06:57.625Z,29.98
2018-03-28T02:08:00.099Z,23.60
2018-03-28T02:09:02.636Z,28.83
2018-03-28T02:10:05.894Z,21.90
2018-03-28T02:11:08.370Z,28.50
2018-03-28T02:12:10.853Z,23.25
2018-03-28T02:13:13.362Z,25.75
2018-03-28T02:14:16.611Z,19.90
2018-03-28T02:15:19.058Z,25.75
2018-03-28T02:16:21.530Z,27.45
2018-03-28T02:17:24.019Z,23.52
2018-03-28T02:18:26.480Z,24.73
2018-03-28T02:19:28.985Z,24.90
2018-03-28T02:20:31.529Z,24.70
2018-03-28T02:21:34.028Z,26.12
2018-03-28T02:22:36.522Z,25.77
2018-03-28T02:23:39.036Z,27.95
2018-03-28T02:24:42.281Z,26.98
2018-03-28T02:25:44.874Z,23.35
2018-03-28T02:26:48.226Z,25.25
2018-03-28T02:27:50.689Z,28.87
2018-03-28T02:28:53.232Z,24.92
2018-03-28T02:29:55.739Z,23.02
2018-03-28T02:30:58.233Z,28.17
2018-03-28T02:32:01.486Z,26.42
2018-03-28T02:33:04.720Z,28.15
2018-03-28T02:34:07.947Z,24.80
2018-03-28T02:35:10.721Z,27.27
2018-03-28T02:36:13.168Z,30.80
2018-03-28T02:37:15.704Z,26.70
2018-03-28T02:38:18.772Z,27.67
2018-03-28T02:39:21.250Z,25.95
2018-03-28T02:40:23.751Z,24.70
2018-03-28T02:41:26.244Z,24.52
2018-03-28T02:42:28.767Z,29.87
2018-03-28T02:43:31.261Z,30.85
2018-03-28T02:44:33.752Z,26.10
2018-03-28T02:45:37.116Z,28.00
2018-03-28T02:46:39.645Z,30.62
2018-03-28T02:47:42.191Z,26.90
2018-03-28T02:48:44.688Z,31.52
2018-03-28T02:49:47.144Z,29.48
2018-03-28T02:50:49.625Z,31.52
2018-03-28T02:51:52.869Z,29.37
2018-03-28T02:52:55.358Z,29.70
2018-03-28T02:53:58.718Z,31.27
2018-03-28T02:55:01.182Z,32.90
2018-03-28T02:56:03.646Z,30.95
2018-03-28T02:57:06.104Z,30.98
2018-03-28T02:58:09.371Z,28.70
2018-03-28T02:59:11.875Z,33.20
2018-03-28T03:00:14.367Z,28.15
2018-03-28T03:01:16.825Z,31.98
2018-03-28T03:02:19.347Z,31.37
2018-03-28T03:03:22.606Z,35.28
2018-03-28T03:04:25.081Z,35.67
2018-03-28T03:05:27.598Z,35.25
2018-03-28T03:06:30.163Z,34.65
2018-03-28T03:07:33.443Z,34.22
2018-03-28T03:08:35.967Z,32.47
2018-03-28T03:09:38.437Z,44.78
2018-03-28T03:10:41.007Z,57.62
2018-03-28T03:11:43.520Z,34.10
2018-03-28T03:12:46.048Z,62.10
2018-03-28T03:13:48.555Z,61.65
2018-03-28T03:14:51.796Z,40.47
2018-03-28T03:15:55.042Z,33.08
2018-03-28T03:16:58.280Z,29.45
2018-03-28T03:18:01.579Z,39.38
2018-03-28T03:19:04.051Z,42.25
2018-03-28T03:20:07.288Z,43.65
2018-03-28T03:21:10.519Z,31.05
2018-03-28T03:22:12.972Z,38.28
2018-03-28T03:23:15.472Z,40.92
2018-03-28T03:24:17.950Z,38.13
2018-03-28T03:25:20.456Z,33.28
2018-03-28T03:26:22.986Z,45.30
2018-03-28T03:27:25.487Z,46.33
2018-03-28T03:28:28.729Z,39.53
2018-03-28T03:29:31.996Z,37.30
2018-03-28T03:30:34.535Z,41.05
2018-03-28T03:31:37.010Z,43.80
2018-03-28T03:32:39.606Z,43.05
2018-03-28T03:33:42.119Z,41.95
2018-03-28T03:34:44.599Z,37.67
2018-03-28T03:35:47.859Z,39.35
2018-03-28T03:36:51.140Z,37.00
2018-03-28T03:37:53.604Z,39.88
2018-03-28T03:38:56.860Z,45.00
2018-03-28T03:40:00.158Z,41.20
2018-03-28T03:41:02.657Z,45.75
2018-03-28T03:42:05.126Z,41.85
2018-03-28T03:43:07.582Z,39.83
2018-03-28T03:44:10.832Z,53.25
2018-03-28T03:45:13.360Z,43.33
2018-03-28T03:46:15.932Z,42.08
2018-03-28T03:47:18.422Z,43.22
2018-03-28T03:48:20.984Z,41.25
2018-03-28T03:49:24.230Z,41.33
2018-03-28T03:50:26.747Z,41.55
2018-03-28T03:51:29.226Z,38.85
2018-03-28T03:52:31.726Z,44.35
2018-03-28T03:53:34.999Z,41.92
2018-03-28T03:54:37.523Z,46.33
2018-03-28T03:55:39.997Z,42.22
2018-03-28T03:56:42.653Z,44.33
2018-03-28T03:57:45.150Z,42.80
2018-03-28T03:58:49.170Z,49.58
2018-03-28T03:59:51.715Z,46.63
2018-03-28T04:00:54.281Z,49.45
2018-03-28T04:01:56.855Z,44.13
2018-03-28T04:02:59.315Z,45.50
2018-03-28T04:04:01.862Z,45.53
2018-03-28T04:05:04.347Z,46.90
2018-03-28T04:06:06.835Z,45.80
2018-03-28T04:07:09.290Z,42.92
2018-03-28T04:08:11.884Z,41.30
2018-03-28T04:09:15.501Z,44.13
2018-03-28T04:10:18.829Z,44.28
2018-03-28T04:11:21.325Z,43.60
2018-03-28T04:12:23.816Z,46.20
2018-03-28T04:13:26.267Z,43.15
2018-03-28T04:14:29.011Z,46.63
2018-03-28T04:15:31.551Z,47.40
2018-03-28T04:16:34.056Z,44.33
2018-03-28T04:17:36.578Z,43.75
2018-03-28T04:18:39.078Z,44.65
2018-03-28T04:19:41.607Z,48.53
2018-03-28T04:20:44.838Z,46.88
2018-03-28T04:21:48.079Z,50.58
2018-03-28T04:22:52.400Z,49.28
2018-03-28T04:23:54.885Z,46.13
2018-03-28T04:24:58.118Z,48.67
2018-03-28T04:26:01.407Z,46.15
2018-03-28T04:27:03.880Z,44.50
2018-03-28T04:28:07.132Z,47.67
2018-03-28T04:29:11.967Z,46.10
2018-03-28T04:30:14.429Z,42.60
2018-03-28T04:31:17.696Z,48.00
2018-03-28T04:32:20.232Z,53.87
2018-03-28T04:33:22.767Z,50.80
2018-03-28T04:34:25.252Z,50.85
2018-03-28T04:35:27.755Z,48.87
2018-03-28T04:36:31.007Z,50.35
2018-03-28T04:37:34.280Z,48.47
2018-03-28T04:38:37.548Z,47.72
2018-03-28T04:39:40.065Z,48.63
2018-03-28T04:40:42.577Z,50.12
2018-03-28T04:41:45.057Z,51.42
2018-03-28T04:42:47.582Z,44.03
2018-03-28T04:43:50.125Z,50.20
2018-03-28T04:44:52.873Z,48.15
2018-03-28T04:45:56.138Z,47.03
2018-03-28T04:46:58.589Z,49.08
2018-03-28T04:48:01.081Z,45.47
2018-03-28T04:49:03.618Z,49.17
2018-03-28T04:50:06.159Z,48.83
2018-03-28T04:51:08.651Z,66.30
2018-03-28T04:52:11.907Z,60.12
2018-03-28T04:53:14.448Z,56.88
2018-03-28T04:54:17.306Z,52.70
2018-03-28T04:55:19.803Z,48.97
2018-03-28T04:56:22.474Z,64.78
2018-03-28T04:57:25.808Z,52.38
2018-03-28T04:58:28.303Z,51.53
2018-03-28T04:59:30.795Z,55.92
2018-03-28T05:00:34.107Z,53.13
2018-03-28T05:01:36.607Z,56.75
2018-03-28T05:02:39.092Z,52.65
2018-03-28T05:03:41.690Z,53.67
2018-03-28T05:04:44.162Z,54.17
2018-03-28T05:05:46.672Z,57.62
2018-03-28T05:06:49.932Z,48.55
2018-03-28T05:07:52.468Z,49.13
2018-03-28T05:08:54.974Z,54.88
2018-03-28T05:09:57.650Z,50.78
2018-03-28T05:11:00.109Z,50.00
2018-03-28T05:12:03.490Z,55.00
2018-03-28T05:13:06.060Z,62.28
2018-03-28T05:14:10.062Z,54.15
2018-03-28T05:15:12.724Z,56.92
2018-03-28T05:16:15.547Z,51.72
2018-03-28T05:17:18.549Z,50.70
2018-03-28T05:18:21.937Z,53.60
2018-03-28T05:19:24.500Z,55.63
2018-03-28T05:20:26.986Z,66.40
2018-03-28T05:21:29.475Z,54.00
2018-03-28T05:22:32.058Z,58.00
2018-03-28T05:23:35.293Z,52.03
2018-03-28T05:24:38.204Z,54.75
2018-03-28T05:25:40.756Z,53.83
2018-03-28T05:26:43.393Z,52.03
2018-03-28T05:27:45.842Z,57.47
2018-03-28T05:28:49.122Z,58.67
2018-03-28T05:29:51.605Z,61.58
2018-03-28T05:30:54.200Z,54.92
2018-03-28T05:31:56.716Z,56.03
2018-03-28T05:32:59.219Z,62.35
2018-03-28T05:34:02.486Z,55.72
2018-03-28T05:35:04.979Z,59.55
2018-03-28T05:36:07.454Z,58.75
2018-03-28T05:37:10.030Z,56.20
2018-03-28T05:38:12.548Z,60.12
2018-03-28T05:39:15.080Z,65.68
2018-03-28T05:40:17.579Z,52.45
2018-03-28T05:41:20.115Z,63.47
2018-03-28T05:42:23.356Z,53.20
2018-03-28T05:43:26.727Z,67.45
2018-03-28T05:44:29.260Z,55.97
2018-03-28T05:45:31.723Z,61.97
2018-03-28T05:46:34.204Z,58.17
2018-03-28T05:47:36.770Z,55.33
2018-03-28T05:48:39.251Z,57.60
2018-03-28T05:49:41.768Z,59.35
2018-03-28T05:50:44.217Z,60.60
2018-03-28T05:51:46.701Z,59.28
2018-03-28T05:52:49.948Z,55.28
2018-03-28T05:53:53.260Z,59.45
2018-03-28T05:54:55.969Z,60.63
2018-03-28T05:55:58.431Z,63.58
2018-03-28T05:57:00.939Z,60.65
2018-03-28T05:58:03.435Z,57.30
2018-03-28T05:59:05.930Z,58.72
2018-03-28T06:00:09.217Z,60.97
2018-03-28T06:01:11.734Z,67.07
2018-03-28T06:02:14.223Z,65.18
2018-03-28T06:03:17.451Z,60.50
2018-03-28T06:04:20.707Z,61.37
2018-03-28T06:05:24.086Z,64.97
2018-03-28T06:06:26.931Z,66.18
2018-03-28T06:07:29.452Z,64.03
2018-03-28T06:08:31.947Z,73.68
2018-03-28T06:09:35.202Z,67.05
2018-03-28T06:10:37.719Z,64.07
2018-03-28T06:11:40.236Z,68.12
2018-03-28T06:12:43.462Z,65.05
2018-03-28T06:13:46.007Z,98.07
2018-03-28T06:14:49.293Z,80.05
2018-03-28T06:15:51.864Z,104.07
2018-03-28T06:16:54.369Z,90.78
2018-03-28T06:17:57.727Z,76.72
2018-03-28T06:19:00.995Z,99.43
2018-03-28T06:20:04.241Z,105.22
2018-03-28T06:21:06.879Z,96.65
2018-03-28T06:22:09.366Z,90.45
2018-03-28T06:23:11.919Z,77.28
2018-03-28T06:24:15.158Z,75.37
2018-03-28T06:25:17.653Z,86.97
2018-03-28T06:26:20.219Z,83.57
2018-03-28T06:27:22.742Z,75.10
2018-03-28T06:28:25.211Z,79.78
2018-03-28T06:29:27.687Z,88.93
2018-03-28T06:30:30.235Z,90.60
2018-03-28T06:31:32.753Z,79.47
2018-03-28T06:32:35.264Z,83.35
2018-03-28T06:33:37.792Z,85.82
2018-03-28T06:34:40.287Z,82.80
2018-03-28T06:35:42.804Z,80.22
2018-03-28T06:36:45.363Z,89.15
2018-03-28T06:37:47.883Z,81.07
2018-03-28T06:38:51.121Z,85.20
2018-03-28T06:39:54.456Z,89.90
2018-03-28T06:40:57.721Z,80.28
2018-03-28T06:42:00.297Z,90.20
2018-03-28T06:43:02.769Z,88.45
2018-03-28T06:44:05.287Z,86.40
2018-03-28T06:45:08.555Z,88.57
2018-03-28T06:46:11.046Z,87.97
2018-03-28T06:47:14.333Z,93.68
2018-03-28T06:48:17.582Z,84.47
2018-03-28T06:49:20.124Z,79.87
2018-03-28T06:50:22.645Z,95.00
2018-03-28T06:51:25.155Z,91.10
2018-03-28T06:52:27.635Z,95.93
2018-03-28T06:53:31.261Z,89.60
2018-03-28T06:54:33.717Z,91.22
2018-03-28T06:55:37.005Z,85.82
2018-03-28T06:56:39.470Z,92.97
2018-03-28T06:57:42.019Z,91.60
2018-03-28T06:58:45.376Z,91.63
2018-03-28T06:59:47.924Z,92.35
2018-03-28T07:00:50.379Z,97.30
2018-03-28T07:01:52.875Z,96.53
2018-03-28T07:02:55.335Z,99.75
2018-03-28T07:03:57.821Z,88.30
2018-03-28T07:05:00.336Z,94.72
2018-03-28T07:06:02.882Z,92.62
2018-03-28T07:07:05.359Z,84.90
2018-03-28T07:08:08.636Z,97.10
2018-03-28T07:09:11.117Z,89.82
2018-03-28T07:10:14.349Z,89.30
2018-03-28T07:11:16.864Z,96.97
2018-03-28T07:12:19.411Z,92.43
2018-03-28T07:13:21.981Z,94.50
2018-03-28T07:14:24.495Z,91.72
2018-03-28T07:15:33.255Z,97.45
2018-03-28T07:16:35.857Z,101.55
2018-03-28T07:17:38.355Z,95.35
2018-03-28T07:18:41.210Z,94.00
2018-03-28T07:19:43.806Z,91.07
2018-03-28T07:20:46.326Z,97.95
2018-03-28T07:21:49.214Z,94.28
2018-03-28T07:22:51.825Z,95.55
2018-03-28T07:23:54.332Z,98.32
2018-03-28T07:24:56.900Z,102.38
2018-03-28T07:25:59.436Z,100.20
2018-03-28T07:27:01.996Z,95.00
2018-03-28T07:28:04.577Z,105.35
2018-03-28T07:29:16.708Z,95.28
2018-03-28T07:30:19.322Z,97.20
2018-03-28T07:31:24.535Z,104.40
2018-03-28T07:32:27.077Z,102.93
2018-03-28T07:33:29.625Z,102.25
2018-03-28T07:34:32.165Z,108.97
2018-03-28T07:35:35.455Z,93.43
2018-03-28T07:36:38.030Z,101.72
2018-03-28T07:37:41.346Z,112.22
2018-03-28T07:38:43.851Z,108.97
2018-03-28T07:39:46.368Z,103.32
2018-03-28T07:40:48.890Z,107.78
2018-03-28T07:41:52.282Z,118.85
2018-03-28T07:42:54.947Z,105.15
2018-03-28T07:43:57.469Z,99.35
2018-03-28T07:44:59.974Z,99.03
2018-03-28T07:46:03.775Z,103.65
2018-03-28T07:47:06.321Z,103.72
2018-03-28T07:48:08.933Z,106.37
2018-03-28T07:49:11.463Z,101.32
2018-03-28T07:50:13.963Z,108.22
2018-03-28T07:51:16.745Z,106.90
2018-03-28T07:52:19.815Z,101.70
2018-03-28T07:53:22.486Z,101.90
2018-03-28T07:54:24.960Z,120.05
2018-03-28T07:55:28.235Z,109.63
2018-03-28T07:56:30.772Z,121.68
2018-03-28T07:57:33.328Z,102.80
2018-03-28T07:58:39.899Z,113.32
2018-03-28T07:59:42.434Z,99.78
2018-03-28T08:00:44.920Z,109.07
2018-03-28T08:01:48.174Z,108.05
2018-03-28T08:02:50.752Z,106.47
2018-03-28T08:03:54.096Z,111.37
2018-03-28T08:04:56.612Z,111.70
2018-03-28T08:05:59.122Z,106.90
2018-03-28T08:07:10.509Z,111.37
2018-03-28T08:09:27.082Z,109.90
2018-03-28T08:10:29.695Z,118.90
2018-03-28T08:11:32.194Z,100.30
2018-03-28T08:13:59.952Z,107.50
2018-03-28T08:15:03.311Z,110.03
2018-03-28T08:16:09.447Z,109.03
2018-03-28T08:17:12.651Z,117.90
2018-03-28T08:18:15.187Z,110.95
2018-03-28T08:19:18.254Z,120.55
2018-03-28T08:21:34.692Z,112.50
2018-03-28T08:22:37.319Z,115.90
2018-03-28T08:23:39.853Z,111.07
2018-03-28T08:24:42.364Z,112.22
2018-03-28T08:25:45.518Z,122.72
2018-03-28T08:26:48.899Z,111.82
2018-03-28T08:27:51.960Z,118.20
2018-03-28T08:28:54.578Z,116.28
2018-03-28T08:29:57.579Z,125.57
2018-03-28T08:31:00.191Z,119.53
2018-03-28T08:32:02.880Z,131.25
2018-03-28T08:33:05.471Z,122.35
2018-03-28T08:34:09.598Z,127.85
2018-03-28T08:35:12.158Z,123.72
2018-03-28T08:36:19.883Z,121.87
2018-03-28T08:37:23.186Z,116.75
2018-03-28T08:38:25.696Z,121.87
2018-03-28T08:39:28.435Z,123.40
2018-03-28T08:40:30.951Z,125.10
2018-03-28T08:41:33.825Z,124.82
2018-03-28T08:42:36.378Z,123.47
2018-03-28T08:43:38.904Z,129.12
2018-03-28T08:44:41.508Z,139.35
2018-03-28T08:45:44.093Z,127.55
2018-03-28T08:46:46.626Z,140.48
2018-03-28T08:47:49.188Z,132.40
2018-03-28T08:48:51.772Z,135.90
2018-03-28T08:49:54.258Z,135.20
2018-03-28T08:50:56.839Z,126.60
2018-03-28T08:52:00.561Z,133.45
2018-03-28T08:53:03.092Z,141.50
2018-03-28T08:54:05.588Z,129.07
2018-03-28T08:55:08.073Z,129.85
2018-03-28T08:56:10.660Z,132.85
2018-03-28T08:57:14.806Z,121.32
2018-03-28T08:58:18.120Z,135.80
2018-03-28T08:59:20.774Z,137.43
2018-03-28T09:00:23.552Z,129.57
2018-03-28T09:01:26.091Z,126.12
2018-03-28T09:02:28.781Z,127.40
2018-03-28T09:03:31.975Z,136.70
2018-03-28T09:04:34.738Z,127.35
2018-03-28T09:05:37.382Z,131.85
2018-03-28T09:06:42.405Z,136.35
2018-03-28T09:07:45.237Z,121.90
2018-03-28T09:08:47.776Z,127.12
2018-03-28T09:09:58.452Z,133.57
2018-03-28T09:11:00.998Z,132.20
2018-03-28T09:12:03.512Z,131.07
2018-03-28T09:13:06.932Z,130.63
2018-03-28T09:14:09.510Z,140.10
2018-03-28T09:15:12.025Z,127.75
2018-03-28T09:16:14.550Z,130.32
2018-03-28T09:17:17.070Z,134.12
2018-03-28T09:18:19.578Z,125.80
2018-03-28T09:19:22.844Z,120.65
2018-03-28T09:20:25.399Z,125.35
2018-03-28T09:21:27.995Z,130.25
2018-03-28T09:22:30.567Z,120.97
2018-03-28T09:23:33.396Z,112.93
2018-03-28T09:24:35.898Z,120.95
2018-03-28T09:25:38.458Z,132.73
2018-03-28T09:26:41.024Z,135.23
2018-03-28T09:27:44.312Z,130.25
2018-03-28T09:28:46.855Z,122.13
2018-03-28T09:29:49.394Z,140.80
2018-03-28T09:30:51.935Z,121.60
2018-03-28T09:31:55.259Z,119.60
2018-03-28T09:32:58.513Z,131.27
2018-03-28T09:34:01.763Z,110.80
2018-03-28T09:35:05.035Z,109.00
2018-03-28T09:36:07.570Z,122.53
2018-03-28T09:37:10.058Z,130.12
2018-03-28T09:38:13.308Z,121.82
2018-03-28T09:39:15.877Z,115.78
2018-03-28T09:40:18.426Z,122.95
2018-03-28T09:41:20.915Z,123.07
2018-03-28T09:42:23.456Z,124.10
2018-03-28T09:43:25.972Z,118.43
2018-03-28T09:44:28.446Z,121.07
2018-03-28T09:45:31.721Z,118.40
2018-03-28T09:46:34.250Z,116.45
2018-03-28T09:47:37.259Z,122.32
2018-03-28T09:48:40.732Z,120.43
2018-03-28T09:49:43.244Z,118.18
2018-03-28T09:50:46.384Z,125.03
2018-03-28T09:51:49.641Z,126.80
2018-03-28T09:52:52.169Z,114.10
2018-03-28T09:53:54.710Z,120.13
2018-03-28T09:56:06.227Z,119.40
2018-03-28T09:57:08.676Z,125.10
2018-03-28T09:58:11.592Z,115.80
2018-03-28T09:59:14.075Z,113.55
2018-03-28T10:00:22.118Z,119.80
2018-03-28T10:01:30.551Z,115.28
2018-03-28T10:02:47.930Z,116.85
2018-03-28T10:03:51.268Z,112.35
2018-03-28T10:04:54.489Z,110.70
2018-03-28T10:05:56.959Z,118.30
2018-03-28T10:06:59.434Z,121.03
2018-03-28T10:08:01.922Z,118.35
2018-03-28T10:09:04.460Z,113.47
2018-03-28T10:10:06.938Z,121.57
2018-03-28T10:11:10.166Z,109.53
2018-03-28T10:12:12.645Z,112.65
2018-03-28T10:13:15.147Z,118.30
2018-03-28T10:14:18.436Z,106.15
2018-03-28T10:15:20.907Z,109.20
2018-03-28T10:16:24.143Z,110.15
2018-03-28T10:17:26.629Z,98.80
2018-03-28T10:18:29.117Z,114.12
2018-03-28T10:19:31.611Z,107.30
2018-03-28T10:20:34.882Z,116.07
2018-03-28T10:21:37.953Z,102.80
2018-03-28T10:22:40.628Z,105.90
2018-03-28T10:23:43.872Z,115.15
2018-03-28T10:24:47.107Z,106.47
2018-03-28T10:25:50.418Z,103.15
2018-03-28T10:26:53.008Z,116.80
2018-03-28T10:27:55.554Z,100.60
2018-03-28T10:28:58.156Z,117.35
2018-03-28T10:30:00.850Z,120.18
2018-03-28T10:31:03.411Z,113.12
2018-03-28T10:32:05.914Z,117.87
2018-03-28T10:33:09.178Z,111.40
2018-03-28T10:34:11.673Z,122.03
2018-03-28T10:35:14.145Z,110.55
2018-03-28T10:36:16.673Z,110.28
2018-03-28T10:37:19.246Z,115.05
2018-03-28T10:38:21.796Z,112.90
2018-03-28T10:39:25.045Z,105.40
2018-03-28T10:40:28.317Z,106.80
2018-03-28T10:41:31.511Z,108.57
2018-03-28T10:42:34.039Z,106.37
2018-03-28T10:43:37.271Z,112.05
2018-03-28T10:44:40.561Z,111.32
2018-03-28T10:45:43.047Z,98.00
2018-03-28T10:46:45.658Z,102.10
2018-03-28T10:47:48.265Z,113.15
2018-03-28T10:48:50.860Z,105.30
2018-03-28T10:49:53.338Z,115.68
2018-03-28T10:50:55.849Z,109.15
2018-03-28T10:51:58.334Z,120.30
2018-03-28T10:53:00.841Z,98.75
2018-03-28T10:54:04.709Z,104.38
2018-03-28T10:55:07.192Z,106.35
2018-03-28T10:56:09.779Z,105.72
2018-03-28T10:57:12.290Z,102.07
2018-03-28T10:58:14.837Z,107.95
2018-03-28T10:59:17.332Z,110.07
2018-03-28T11:00:19.885Z,107.03
2018-03-28T11:01:22.392Z,105.75
2018-03-28T11:02:24.910Z,100.35
2018-03-28T11:03:28.162Z,109.43
2018-03-28T11:04:30.760Z,113.70
2018-03-28T11:05:34.560Z,116.12
2018-03-28T11:06:37.103Z,108.32
2018-03-28T11:07:39.588Z,109.78
2018-03-28T11:08:42.852Z,112.80
2018-03-28T11:09:45.362Z,113.60
2018-03-28T11:10:47.942Z,105.80
2018-03-28T11:11:50.420Z,105.87
2018-03-28T11:12:52.902Z,113.25
2018-03-28T11:13:55.475Z,111.70
2018-03-28T11:14:57.990Z,107.97
2018-03-28T11:16:00.468Z,113.93
2018-03-28T11:17:02.957Z,104.07
2018-03-28T11:18:05.424Z,112.37
2018-03-28T11:19:07.937Z,111.25
2018-03-28T11:20:10.415Z,115.55
2018-03-28T11:21:12.878Z,113.95
2018-03-28T11:22:15.370Z,112.85
2018-03-28T11:23:17.841Z,113.32
2018-03-28T11:24:20.339Z,113.15
2018-03-28T11:25:22.802Z,113.18
2018-03-28T11:26:25.281Z,113.55
2018-03-28T11:27:27.754Z,110.95
2018-03-28T11:28:30.213Z,118.90
2018-03-28T11:29:32.747Z,115.12
2018-03-28T11:30:35.219Z,107.22
2018-03-28T11:31:37.696Z,115.75
2018-03-28T11:32:40.188Z,118.40
2018-03-28T11:33:42.736Z,114.25
2018-03-28T11:34:45.331Z,114.25
2018-03-28T11:35:48.567Z,108.63
2018-03-28T11:36:51.048Z,103.05
2018-03-28T11:37:53.541Z,110.03
2018-03-28T11:38:56.795Z,110.68
2018-03-28T11:40:00.088Z,116.53
2018-03-28T11:41:02.550Z,113.03
2018-03-28T11:42:05.779Z,106.43
2018-03-28T11:43:08.392Z,103.45
2018-03-28T11:44:10.837Z,99.95
2018-03-28T11:45:13.410Z,111.93
2018-03-28T11:46:15.884Z,102.65
2018-03-28T11:47:18.329Z,91.93
2018-03-28T11:48:21.616Z,104.55
2018-03-28T11:49:24.095Z,98.57
2018-03-28T11:50:27.385Z,96.15
2018-03-28T11:51:29.900Z,90.70
2018-03-28T11:52:32.432Z,92.37
2018-03-28T11:53:34.989Z,90.40
2018-03-28T11:54:38.260Z,88.47
2018-03-28T11:55:40.804Z,87.15
2018-03-28T11:56:43.291Z,87.05
2018-03-28T11:57:45.861Z,93.05
2018-03-28T11:58:48.343Z,94.93
2018-03-28T11:59:51.683Z,89.35
2018-03-28T12:00:54.974Z,90.43
2018-03-28T12:01:57.462Z,83.15
2018-03-28T12:03:00.038Z,85.30
2018-03-28T12:05:11.677Z,91.68
2018-03-28T12:06:14.165Z,89.50
2018-03-28T12:07:17.531Z,88.70
2018-03-28T12:08:20.137Z,82.25
2018-03-28T12:09:22.653Z,80.62
2018-03-28T12:10:26.831Z,91.72
2018-03-28T12:11:29.441Z,87.82
2018-03-28T12:12:31.954Z,78.57
2018-03-28T12:13:35.296Z,84.70
2018-03-28T12:14:38.205Z,86.03
2018-03-28T12:15:40.683Z,81.90
2018-03-28T12:16:43.213Z,79.45
2018-03-28T12:17:45.717Z,80.72
2018-03-28T12:18:48.216Z,82.05
2018-03-28T12:19:51.447Z,82.00
2018-03-28T12:20:53.923Z,83.07
2018-03-28T12:21:56.402Z,79.20
2018-03-28T12:22:58.884Z,81.90
2018-03-28T12:24:01.390Z,84.13
2018-03-28T12:25:03.912Z,82.18
2018-03-28T12:26:07.271Z,79.12
2018-03-28T12:27:09.826Z,74.53
2018-03-28T12:28:12.305Z,74.20
2018-03-28T12:29:14.844Z,74.72
2018-03-28T12:30:17.322Z,79.60
2018-03-28T12:31:19.811Z,75.53
2018-03-28T12:32:22.291Z,84.43
2018-03-28T12:33:25.642Z,86.53
2018-03-28T12:34:29.007Z,86.00
2018-03-28T12:35:31.491Z,82.20
2018-03-28T12:36:33.975Z,79.45
2018-03-28T12:37:36.464Z,73.37
2018-03-28T12:38:39.754Z,82.00
2018-03-28T12:39:42.304Z,80.43
2018-03-28T12:40:45.571Z,67.93
2018-03-28T12:41:48.840Z,76.05
2018-03-28T12:42:51.379Z,80.72
2018-03-28T12:43:53.861Z,82.68
2018-03-28T12:44:57.123Z,74.55
2018-03-28T12:45:59.595Z,75.05
2018-03-28T12:47:02.066Z,81.05
2018-03-28T12:48:05.285Z,76.90
2018-03-28T12:49:08.551Z,75.00
2018-03-28T12:50:11.802Z,76.50
2018-03-28T12:51:14.287Z,69.07
2018-03-28T12:52:16.789Z,70.62
2018-03-28T12:53:19.293Z,68.75
2018-03-28T12:54:21.778Z,73.43
2018-03-28T12:55:25.072Z,73.50
2018-03-28T12:56:27.612Z,74.53
2018-03-28T12:57:30.185Z,73.37
2018-03-28T12:58:33.467Z,71.30
2018-03-28T12:59:35.954Z,93.10
2018-03-28T13:00:39.185Z,111.62
2018-03-28T13:01:42.427Z,86.95
2018-03-28T13:02:45.666Z,93.78
2018-03-28T13:03:48.164Z,125.93
2018-03-28T13:04:50.640Z,80.12
2018-03-28T13:05:53.862Z,93.57
2018-03-28T13:06:57.128Z,90.20
2018-03-28T13:07:59.705Z,83.95
2018-03-28T13:09:02.192Z,80.65
2018-03-28T13:10:05.473Z,77.07
2018-03-28T13:11:07.947Z,86.87
2018-03-28T13:12:11.303Z,72.35
2018-03-28T13:13:13.789Z,83.87
2018-03-28T13:14:16.274Z,75.87
2018-03-28T13:15:18.774Z,90.78
2018-03-28T13:16:21.305Z,68.72
2018-03-28T13:17:24.560Z,85.22
2018-03-28T13:18:27.069Z,77.72
2018-03-28T13:19:30.302Z,87.37
2018-03-28T13:20:32.787Z,79.35
2018-03-28T13:21:35.346Z,81.72
2018-03-28T13:22:38.702Z,76.35
2018-03-28T13:23:41.177Z,75.25
2018-03-28T13:24:43.665Z,69.37
2018-03-28T13:25:46.160Z,66.10
2018-03-28T13:26:49.405Z,74.40